Mountain, North Dakota
Current Conditions -  °F | °C
As of 7:35 AM on Thursday 23 Oct 2014 (Local Time) from K2C8 Reporting Station
Broken Clouds Broken Clouds  
Wind Chill: 48°   Ceiling: 11000
Heat Index: 48°   Visibility: 10mi
Dew Point: 41°   Wind: 3mph
Humidity: 76%   Direction: 230°SW
Pressure: 29.8"   Gusts: NA
Location:  48.69°N, 97.87°W
Report Text: K2C8 231235Z AUTO 23003KT 10SM BKN110 09/05 A2980 RMK AO2
Loading
Personal Weather Stations






























Interactive Weather Map
Tropical Storm Tracking
New forecast layout! Learn more

10-Day Weather Forecast

Advertisements
Track Severe Weather on mobile